Forside
METAR-TAF:

METAR-TAF

Lufthavne :

Galesburg Municipal Airport

Galesburg, Illinois, USA

Breddekreds: 40-56-17N, længdekreds: 090-25-52W, højde: 233 m

Aktuelle vejr

Denne rapport blev lavet for 22 minutter siden, kl. 23:15 UTC
Vind 8 kt fra sydvest
Temperatur 14°C
Fugtighed 77%
Tryk 1013 hPa
Sigt: 16.1 km
Overskyet i en højde af 3500 ft

METAR: KGBG 192315Z AUTO 23008KT 10SM OVC035 14/10 A2992 RMK AO2 T01360095

Tid: 18:37 (23:37 UTC)


TAF: fraværende

Vejrobservationer og prognoser fra mere end 4000 lufthavne (METAR og TAF).

De gule og røde prikker repræsenterer de meteorologiske stationer.

Flyt musen over at se navnet på stationen.

Så klik over at se vejr observationer og prognoser.

At skifte det kort: Klik på de grønne knapper med et sort kors for at zoome ind; på den grønne knap med en bindestreg for at zoome ud; eller på de grønne pile for tilstødende kort.


METAR-TAF: